Time;durP1;ratioP1;P1;durP2;ratioP2;P2;SDS_P1;SDS_P2;PMS_P1;PMS_P2;Temp;Humidity;BMP_temperature;BMP_pressure;BME280_temperature;BME280_humidity;BME280_pressure;Samples;Min_cycle;Max_cycle;Signal;HPM_P1;HPM_P2
2022/12/16 00:00:29;;;;;;;20.95;6.25;;;2.00;99.90;;;;;;5055235;28;20071;-80
2022/12/16 00:02:54;;;;;;;17.33;5.22;;;2.00;99.90;;;;;;5055004;28;20041;-80
2022/12/16 00:05:20;;;;;;;18.27;6.60;;;2.00;99.90;;;;;;5055999;28;20167;-79
2022/12/16 00:07:47;;;;;;;28.17;6.40;;;1.90;99.90;;;;;;5054917;28;20053;-80
2022/12/16 00:10:13;;;;;;;22.33;7.35;;;1.80;99.90;;;;;;5055895;28;20051;-80
2022/12/16 00:12:38;;;;;;;24.38;7.00;;;2.00;99.90;;;;;;5054670;28;20086;-80
2022/12/16 00:15:05;;;;;;;29.73;7.35;;;1.90;99.90;;;;;;5054754;28;20128;-80
2022/12/16 00:17:30;;;;;;;22.75;7.38;;;1.90;99.90;;;;;;5054981;28;20080;-80
2022/12/16 00:19:56;;;;;;;20.80;7.00;;;1.90;99.90;;;;;;5054725;28;20087;-80
2022/12/16 00:22:24;;;;;;;31.08;9.95;;;1.90;99.90;;;;;;5054627;28;20045;-80
2022/12/16 00:24:49;;;;;;;23.92;7.75;;;2.00;99.90;;;;;;5055012;28;20492;-80
2022/12/16 00:27:15;;;;;;;18.23;6.00;;;2.00;99.90;;;;;;5054446;28;20052;-80
2022/12/16 00:29:41;;;;;;;17.52;6.13;;;2.00;99.90;;;;;;5054177;28;20469;-80
2022/12/16 00:32:06;;;;;;;22.17;7.32;;;2.00;99.90;;;;;;5054059;28;20060;-79
2022/12/16 00:34:32;;;;;;;23.92;6.47;;;2.10;99.90;;;;;;5054444;28;20128;-80
2022/12/16 00:36:58;;;;;;;21.77;6.30;;;2.00;99.90;;;;;;5055737;28;20468;-79
2022/12/16 00:39:24;;;;;;;18.25;6.10;;;2.10;99.90;;;;;;5055463;28;20060;-80
2022/12/16 00:41:50;;;;;;;22.17;6.03;;;2.00;99.90;;;;;;5054385;28;20045;-80
2022/12/16 00:44:16;;;;;;;22.23;6.25;;;2.10;99.90;;;;;;5054016;28;20063;-80
2022/12/16 00:46:42;;;;;;;21.55;6.93;;;2.00;99.90;;;;;;5054182;28;20045;-80
2022/12/16 00:49:07;;;;;;;20.13;5.93;;;2.00;99.90;;;;;;5054241;28;20416;-80
2022/12/16 00:51:33;;;;;;;25.52;6.60;;;2.00;99.90;;;;;;5054431;28;20095;-80
2022/12/16 00:53:59;;;;;;;19.98;6.68;;;2.00;99.90;;;;;;5053994;28;20056;-80
2022/12/16 00:56:24;;;;;;;25.27;6.97;;;1.90;99.90;;;;;;5053860;28;20051;-80
2022/12/16 00:58:50;;;;;;;18.05;5.53;;;1.90;99.90;;;;;;5054151;28;20084;-80
2022/12/16 01:01:16;;;;;;;20.65;6.82;;;1.90;99.90;;;;;;5053876;28;20048;-80
2022/12/16 01:03:42;;;;;;;20.17;7.18;;;1.90;99.90;;;;;;5053917;28;20128;-80
2022/12/16 01:06:10;;;;;;;19.35;6.97;;;1.90;99.90;;;;;;5054114;28;20120;-80
2022/12/16 01:08:36;;;;;;;25.35;7.03;;;1.90;99.90;;;;;;5053626;28;20049;-80
2022/12/16 01:11:02;;;;;;;18.25;7.32;;;1.90;99.90;;;;;;5053873;28;20033;-80
2022/12/16 01:13:28;;;;;;;18.67;6.88;;;2.00;99.90;;;;;;5053755;28;20443;-80
2022/12/16 01:15:54;;;;;;;11.70;5.00;;;2.00;99.90;;;;;;5053647;28;20057;-80
2022/12/16 01:18:20;;;;;;;16.60;4.63;;;2.00;99.90;;;;;;5053661;28;20037;-80
2022/12/16 01:20:45;;;;;;;16.23;4.72;;;2.10;99.90;;;;;;5053537;28;20048;-80
2022/12/16 01:23:11;;;;;;;17.48;5.03;;;2.10;99.90;;;;;;5053335;28;20045;-80
2022/12/16 01:25:37;;;;;;;17.63;6.18;;;2.10;99.90;;;;;;5053352;28;20167;-80
2022/12/16 01:28:03;;;;;;;16.88;6.38;;;2.10;99.90;;;;;;5053660;28;20131;-80
2022/12/16 01:30:28;;;;;;;17.73;6.00;;;2.10;99.90;;;;;;5053653;28;20362;-80
2022/12/16 01:32:54;;;;;;;19.83;5.82;;;2.10;99.90;;;;;;5053511;28;20354;-80
2022/12/16 01:35:20;;;;;;;19.75;6.43;;;2.10;99.90;;;;;;5053103;28;20052;-80
2022/12/16 01:37:46;;;;;;;18.48;5.85;;;2.20;99.90;;;;;;5053095;28;20081;-80
2022/12/16 01:40:21;;;;;;;14.68;5.50;;;2.20;99.90;;;;;;5053146;28;20123;-80
2022/12/16 01:42:48;;;;;;;18.83;6.00;;;2.20;99.90;;;;;;5053173;28;20090;-80
2022/12/16 01:45:32;;;;;;;17.95;5.97;;;2.20;99.90;;;;;;5052744;28;20067;-80
2022/12/16 01:48:05;;;;;;;22.92;6.57;;;2.20;99.90;;;;;;5053076;28;20447;-80
2022/12/16 01:50:31;;;;;;;29.50;6.35;;;2.20;99.90;;;;;;5053229;28;20052;-80
2022/12/16 01:53:02;;;;;;;15.23;5.30;;;2.20;99.90;;;;;;5052842;28;20048;-80
2022/12/16 01:55:35;;;;;;;18.77;6.10;;;2.10;99.90;;;;;;5052900;28;20132;-80
2022/12/16 01:58:11;;;;;;;21.10;6.25;;;2.20;99.90;;;;;;5052863;28;20128;-80
2022/12/16 02:00:39;;;;;;;18.05;5.75;;;2.20;99.90;;;;;;5052942;28;20053;-80
2022/12/16 02:03:05;;;;;;;16.83;5.80;;;2.20;99.90;;;;;;5054154;28;20040;-80
2022/12/16 02:05:34;;;;;;;22.23;5.15;;;2.10;99.90;;;;;;5052644;28;20396;-80
2022/12/16 02:08:21;;;;;;;23.23;6.95;;;2.20;99.90;;;;;;5052673;28;20041;-80
2022/12/16 02:11:22;;;;;;;17.30;6.40;;;2.30;99.90;;;;;;5052748;28;20116;-80
2022/12/16 02:14:15;;;;;;;15.32;4.97;;;2.30;99.90;;;;;;5049301;28;20056;-80
2022/12/16 02:17:11;;;;;;;19.27;5.72;;;2.30;99.90;;;;;;5052890;28;20094;-80
2022/12/16 02:19:56;;;;;;;19.70;5.80;;;2.30;99.90;;;;;;5052699;28;20038;-80
2022/12/16 02:22:36;;;;;;;15.63;6.15;;;2.30;99.90;;;;;;5052823;28;20127;-80
2022/12/16 02:25:17;;;;;;;18.00;5.65;;;2.40;99.90;;;;;;5052517;28;20099;-80
2022/12/16 02:28:14;;;;;;;11.68;5.00;;;2.40;99.90;;;;;;5052569;28;20488;-80
2022/12/16 02:30:55;;;;;;;21.90;6.97;;;2.30;99.90;;;;;;5052399;28;20051;-80
2022/12/16 02:33:48;;;;;;;21.67;6.90;;;2.20;99.90;;;;;;5052256;28;20052;-80
2022/12/16 02:36:29;;;;;;;21.80;6.20;;;2.30;99.90;;;;;;5052492;28;20081;-80
2022/12/16 02:39:04;;;;;;;16.13;5.63;;;2.30;99.90;;;;;;5052224;28;20402;-80
2022/12/16 02:41:29;;;;;;;11.75;5.05;;;2.30;99.90;;;;;;5052567;28;20045;-80
2022/12/16 02:44:02;;;;;;;20.05;5.97;;;2.40;99.90;;;;;;5051977;28;20041;-80
2022/12/16 02:46:34;;;;;;;13.63;5.75;;;2.40;99.90;;;;;;5052109;28;20055;-80
2022/12/16 02:49:27;;;;;;;11.70;4.80;;;2.30;99.90;;;;;;5052441;28;20080;-80
2022/12/16 02:51:54;;;;;;;10.55;4.38;;;2.40;99.90;;;;;;5052597;28;20132;-80
2022/12/16 02:54:20;;;;;;;12.48;4.72;;;2.40;99.90;;;;;;5054455;28;20496;-80
2022/12/16 02:57:10;;;;;;;18.98;4.78;;;2.40;99.90;;;;;;5056236;28;20048;-80
2022/12/16 03:00:04;;;;;;;8.48;4.10;;;2.40;99.90;;;;;;5056170;28;20079;-80
2022/12/16 03:02:39;;;;;;;9.00;4.60;;;2.40;99.90;;;;;;5056403;28;20488;-80
2022/12/16 03:05:44;;;;;;;9.50;4.43;;;2.40;99.90;;;;;;5055971;28;20084;-80
2022/12/16 03:08:14;;;;;;;12.60;5.10;;;2.50;99.90;;;;;;4999413;28;20053;-80
2022/12/16 03:10:52;;;;;;;15.70;5.28;;;2.40;99.90;;;;;;5047131;28;20056;-80
2022/12/16 03:13:20;;;;;;;13.30;5.43;;;2.40;99.90;;;;;;5055892;28;20080;-80
2022/12/16 03:15:48;;;;;;;10.52;4.40;;;2.50;99.90;;;;;;5055786;28;20088;-80
2022/12/16 03:18:15;;;;;;;13.45;5.35;;;2.50;99.90;;;;;;5055744;28;20413;-80
2022/12/16 03:20:49;;;;;;;22.95;5.88;;;2.40;99.90;;;;;;5055798;28;20051;-80
2022/12/16 03:23:20;;;;;;;11.07;4.00;;;2.40;99.90;;;;;;5056081;28;20068;-80
2022/12/16 03:25:49;;;;;;;15.00;5.80;;;2.40;99.90;;;;;;5055832;28;20051;-80
2022/12/16 03:28:43;;;;;;;23.27;5.55;;;2.40;99.90;;;;;;5055804;28;20137;-80
2022/12/16 03:31:46;;;;;;;17.02;6.40;;;2.40;99.90;;;;;;5055847;28;20132;-80
2022/12/16 03:34:42;;;;;;;18.00;3.97;;;2.40;99.90;;;;;;5055562;28;20076;-80
2022/12/16 03:37:10;;;;;;;12.77;5.53;;;2.50;99.90;;;;;;5055719;28;20052;-80
2022/12/16 03:39:41;;;;;;;15.63;6.40;;;2.40;99.90;;;;;;5055702;28;20477;-80
2022/12/16 03:42:08;;;;;;;12.15;5.28;;;2.40;99.90;;;;;;5055562;28;20044;-80
2022/12/16 03:44:34;;;;;;;24.08;5.55;;;2.40;99.90;;;;;;5055288;28;20083;-80
2022/12/16 03:47:00;;;;;;;12.73;5.15;;;2.50;99.90;;;;;;5055217;28;20052;-80
2022/12/16 03:49:26;;;;;;;11.20;5.22;;;2.40;99.90;;;;;;5055244;28;20124;-80
2022/12/16 03:51:53;;;;;;;13.32;5.80;;;2.40;99.90;;;;;;5055444;28;20095;-80
2022/12/16 03:54:20;;;;;;;17.48;5.38;;;2.50;99.90;;;;;;5055014;28;20041;-80
2022/12/16 03:56:46;;;;;;;14.45;5.57;;;2.50;99.90;;;;;;5055472;28;20039;-80
2022/12/16 03:59:12;;;;;;;15.05;5.75;;;2.50;99.90;;;;;;5055139;28;20052;-80
2022/12/16 04:01:38;;;;;;;16.83;6.70;;;2.60;99.90;;;;;;5056265;28;20512;-80
2022/12/16 04:04:04;;;;;;;11.32;4.40;;;2.50;99.90;;;;;;5056361;28;20037;-80
2022/12/16 04:06:30;;;;;;;13.80;3.65;;;2.60;99.90;;;;;;5054094;28;20382;-80
2022/12/16 04:08:56;;;;;;;11.13;4.40;;;2.60;99.90;;;;;;5054951;28;20503;-80
2022/12/16 04:25:28;;;;;;;19.48;5.45;;;2.70;99.90;;;;;;5054552;28;20053;-80
2022/12/16 04:27:53;;;;;;;16.02;5.28;;;2.70;99.90;;;;;;5054674;28;20212;-80
2022/12/16 04:30:20;;;;;;;12.68;3.60;;;2.60;99.90;;;;;;5054583;28;20041;-80
